Informes METAR cercanos


LEVC - Manises, Valencia, ESPAÑA
Distance from station: NNE 72km
Actualización: 22/02/2024 11:00
Despejado
Despejado
 Viento del ONO
Viento: ONO 26 km/h
Temperatura: 22°C
Rocío: 5°C
Humedad: 33%
Barómetro: 1014 hPa
Resumen: Despejado
Visibility: Mas de 10 km
2024/02/22 10:00 LEVC 221000Z 29014KT CAVOK 22/05 Q1014 NOSIG
LEAL - El Altet, Alicante, ESPAÑA
Distance from station: S 70km
Actualización: 22/02/2024 11:00
Despejado
Despejado
 Viento del OSO
Viento: OSO 13 km/h
Temperatura: 21°C
Rocío: 5°C
Humedad: 35%
Barómetro: 1016 hPa
Resumen: Despejado
Visibility: Mas de 10 km
2024/02/22 10:00 LEAL 221000Z 24007KT 200V290 CAVOK 21/05 Q1016 NOSIG
 
LELC - San Javier, Murcia, ESPAÑA
Distance from station: SSO 188km
Actualización: 22/02/2024 11:00
Despejado
Despejado
 Viento del SSO
Viento: SSO 7 km/h
Temperatura: 19°C
Rocío: 14°C
Humedad: 73%
Barómetro: 1017 hPa
Resumen: Despejado
Visibility: Mas de 10 km
2024/02/22 10:00 LELC 221000Z 21004KT 170V250 CAVOK 19/14 Q1017 NOSIG
LEAB - Los Llanos, Albacete, ESPAÑA
Distance from station: O 143km
Actualización: 22/02/2024 11:00
Despejado
Despejado
 Viento del O
Viento: O 30 km/h
Temperatura: 16°C
Rocío: 7°C
Humedad: 55%
Barómetro: 1019 hPa
Resumen: Despejado
Visibility: Mas de 10 km
2024/02/22 10:00 LEAB 221000Z 27016KT CAVOK 16/07 Q1019 NOSIG